Time;durP1;ratioP1;P1;durP2;ratioP2;P2;SDS_P1;SDS_P2;PMS_P1;PMS_P2;Temp;Humidity;BMP_temperature;BMP_pressure;BME280_temperature;BME280_humidity;BME280_pressure;Samples;Min_cycle;Max_cycle;Signal;HPM_P1;HPM_P2
2020/12/15 00:01:07;;;;;;;3.58;2.40;;;;;;;18.96;57.46;100548.19;4789198;29;20105;-72
2020/12/15 00:03:32;;;;;;;4.05;2.03;;;;;;;18.95;57.63;100536.00;4803392;29;20031;-72
2020/12/15 00:05:58;;;;;;;2.92;1.85;;;;;;;18.91;57.38;100527.31;4791487;29;20515;-72
2020/12/15 00:08:23;;;;;;;3.92;2.30;;;;;;;18.92;57.65;100536.91;4786513;30;20039;-72
2020/12/15 00:10:48;;;;;;;3.97;2.13;;;;;;;18.97;57.44;100554.31;4796234;29;20493;-72
2020/12/15 00:13:14;;;;;;;4.15;2.20;;;;;;;18.95;57.50;100540.38;4805450;29;20471;-72
2020/12/15 00:15:39;;;;;;;4.80;2.28;;;;;;;18.95;57.71;100543.00;4820640;29;20026;-72
2020/12/15 00:18:04;;;;;;;3.60;2.33;;;;;;;18.97;57.51;100541.19;4804572;29;20497;-72
2020/12/15 00:20:31;;;;;;;2.67;2.08;;;;;;;18.95;57.24;100540.38;4804982;29;20118;-72
2020/12/15 00:22:57;;;;;;;3.03;2.38;;;;;;;18.94;57.49;100534.28;4788599;29;20035;-72
2020/12/15 00:25:22;;;;;;;3.08;1.70;;;;;;;18.94;57.29;100533.41;4803480;29;20043;-72
2020/12/15 00:27:47;;;;;;;3.67;2.10;;;;;;;18.90;57.44;100529.94;4802467;29;20043;-72
2020/12/15 00:30:13;;;;;;;3.97;2.33;;;;;;;18.92;57.49;100538.66;4797412;29;20551;-72
2020/12/15 00:32:39;;;;;;;4.13;2.35;;;;;;;18.91;57.47;100529.94;4801182;29;20035;-72
2020/12/15 00:35:05;;;;;;;2.38;1.80;;;;;;;18.89;57.68;100536.06;4805671;29;20070;-72
2020/12/15 00:37:35;;;;;;;4.38;2.85;;;;;;;18.91;57.40;100540.41;4789448;29;20038;-72
2020/12/15 00:40:01;;;;;;;2.83;1.70;;;;;;;18.89;57.47;100533.44;4808147;29;20042;-72
2020/12/15 00:42:26;;;;;;;2.92;1.95;;;;;;;18.91;57.00;100534.31;4809468;29;20042;-72
2020/12/15 00:44:51;;;;;;;3.50;2.13;;;;;;;18.88;57.40;100532.56;4808954;29;20057;-73
2020/12/15 00:47:17;;;;;;;5.18;2.47;;;;;;;18.86;57.49;100530.84;4778046;29;20055;-72
2020/12/15 00:49:42;;;;;;;2.90;2.30;;;;;;;18.90;57.34;100524.69;4792473;29;20491;-72
2020/12/15 00:52:07;;;;;;;3.25;2.08;;;;;;;18.88;57.46;100523.84;4808863;29;20070;-72
2020/12/15 00:54:33;;;;;;;3.53;2.05;;;;;;;18.87;57.50;100525.59;4807263;29;20058;-73
2020/12/15 00:56:58;;;;;;;3.58;2.10;;;;;;;18.88;57.43;100516.84;4807752;29;20057;-72
2020/12/15 00:59:23;;;;;;;4.45;2.35;;;;;;;18.83;57.53;100510.78;4806588;29;20548;-72
2020/12/15 01:01:49;;;;;;;2.67;1.80;;;;;;;18.85;57.46;100521.25;4803277;29;20031;-72
2020/12/15 01:04:14;;;;;;;2.40;1.90;;;;;;;18.82;57.30;100508.22;4807560;29;20431;-72
2020/12/15 01:06:39;;;;;;;3.38;2.80;;;;;;;18.83;57.30;100515.16;4796365;29;20041;-72
2020/12/15 01:09:05;;;;;;;3.67;2.08;;;;;;;18.85;57.44;100519.50;4792111;29;20483;-72
2020/12/15 01:11:31;;;;;;;2.63;1.85;;;;;;;18.83;57.43;100513.41;4816945;29;20493;-72
2020/12/15 01:13:56;;;;;;;2.90;1.95;;;;;;;18.83;57.32;100518.66;4806594;29;20066;-72
2020/12/15 01:16:22;;;;;;;2.80;2.15;;;;;;;18.86;57.28;100518.63;4791339;29;20035;-72
2020/12/15 01:18:47;;;;;;;2.85;1.50;;;;;;;18.82;57.45;100516.94;4807064;29;20039;-72
2020/12/15 01:21:13;;;;;;;3.95;2.80;;;;;;;18.82;57.30;100522.19;4806767;29;20063;-72
2020/12/15 01:23:38;;;;;;;6.05;2.40;;;;;;;18.85;57.43;100526.50;4802416;29;20038;-72
2020/12/15 01:26:03;;;;;;;3.70;2.60;;;;;;;18.77;57.54;100508.25;4799121;29;20046;-77
2020/12/15 01:28:29;;;;;;;3.30;1.85;;;;;;;18.84;57.52;100524.75;4807132;29;20119;-77
2020/12/15 01:30:54;;;;;;;2.40;1.80;;;;;;;18.86;57.45;100528.22;4822284;29;20031;-76
2020/12/15 01:33:19;;;;;;;2.75;1.70;;;;;;;18.86;57.24;100530.84;4807110;29;20042;-77
2020/12/15 01:35:46;;;;;;;3.58;2.25;;;;;;;18.85;57.62;100522.13;4807510;29;20119;-77
2020/12/15 01:38:11;;;;;;;4.32;2.17;;;;;;;18.82;57.33;100509.09;4807314;29;20450;-77
2020/12/15 01:40:37;;;;;;;3.03;1.73;;;;;;;18.83;57.56;100516.03;4807818;29;20031;-77
2020/12/15 01:43:02;;;;;;;2.75;1.88;;;;;;;18.84;57.37;100519.50;4810710;29;20042;-77
2020/12/15 01:45:27;;;;;;;2.85;1.83;;;;;;;18.81;57.45;100512.59;4806114;29;20047;-77
2020/12/15 01:47:53;;;;;;;3.10;1.92;;;;;;;18.81;57.26;100511.72;4807327;29;20041;-77
2020/12/15 01:50:19;;;;;;;2.22;1.60;;;;;;;18.82;57.23;100516.94;4784957;30;20047;-77
2020/12/15 01:52:45;;;;;;;2.58;1.60;;;;;;;18.80;56.99;100510.84;4806857;29;20035;-77
2020/12/15 01:55:15;;;;;;;2.50;1.85;;;;;;;18.83;57.39;100507.31;4803409;29;20394;-76
2020/12/15 01:57:43;;;;;;;3.67;1.70;;;;;;;18.83;57.36;100521.25;4806671;29;20123;-77
2020/12/15 02:00:08;;;;;;;2.58;1.85;;;;;;;18.82;57.36;100522.19;4809117;29;20031;-77
2020/12/15 02:02:34;;;;;;;2.50;1.88;;;;;;;18.83;57.39;100523.03;4807824;29;20034;-77
2020/12/15 02:04:59;;;;;;;2.60;1.50;;;;;;;18.81;57.26;100519.56;4802583;29;20030;-77
2020/12/15 02:07:26;;;;;;;2.40;1.73;;;;;;;18.81;57.42;100520.44;4807376;29;20483;-77
2020/12/15 02:09:53;;;;;;;2.72;1.85;;;;;;;18.81;57.19;100527.44;4790502;29;20061;-72
2020/12/15 02:12:18;;;;;;;2.33;1.58;;;;;;;18.80;57.14;100530.94;4805693;29;20038;-72
2020/12/15 02:14:44;;;;;;;4.68;2.92;;;;;;;18.79;57.33;100532.69;4807208;29;20030;-72
2020/12/15 02:17:12;;;;;;;2.05;1.60;;;;;;;18.73;57.11;100524.88;4790889;29;20125;-72
2020/12/15 02:19:38;;;;;;;2.28;1.65;;;;;;;18.80;57.23;100538.78;4799445;29;20034;-72
2020/12/15 02:22:03;;;;;;;2.83;1.63;;;;;;;18.75;57.41;100530.09;4807469;29;20042;-72
2020/12/15 02:24:29;;;;;;;2.92;1.80;;;;;;;18.80;56.95;100539.66;4790317;29;20123;-72
2020/12/15 02:26:55;;;;;;;3.40;2.10;;;;;;;18.76;57.05;100539.69;4807181;29;20050;-72
2020/12/15 02:29:21;;;;;;;2.58;1.65;;;;;;;18.72;57.14;100538.84;4793711;29;20042;-72
2020/12/15 02:31:46;;;;;;;2.20;1.80;;;;;;;18.77;56.98;100546.69;4809415;29;20062;-72
2020/12/15 02:34:12;;;;;;;4.30;2.05;;;;;;;18.77;57.35;100547.56;4805315;29;20066;-72
2020/12/15 02:36:37;;;;;;;2.53;1.70;;;;;;;18.73;57.12;100532.75;4806964;29;20553;-73
2020/12/15 02:39:13;;;;;;;2.47;1.85;;;;;;;18.77;57.13;100544.06;4774635;29;20487;-72
2020/12/15 02:41:39;;;;;;;2.60;1.83;;;;;;;18.77;57.03;100547.56;4785524;29;20022;-72
2020/12/15 02:44:06;;;;;;;2.22;1.80;;;;;;;18.75;56.91;100540.59;4805898;29;20415;-72
2020/12/15 02:46:32;;;;;;;2.42;1.48;;;;;;;18.76;57.11;100547.56;4807568;29;20078;-72
2020/12/15 02:48:58;;;;;;;2.50;1.60;;;;;;;18.75;57.26;100551.06;4798591;29;20062;-72
2020/12/15 02:51:24;;;;;;;2.97;1.83;;;;;;;18.75;57.16;100557.16;4805088;29;20380;-72
2020/12/15 02:53:49;;;;;;;2.28;1.55;;;;;;;18.75;57.09;100561.53;4806449;29;20031;-72
2020/12/15 02:56:25;;;;;;;2.70;1.88;;;;;;;18.73;57.51;100560.69;4806283;29;20046;-72
2020/12/15 02:58:52;;;;;;;3.33;1.52;;;;;;;18.74;57.15;100568.53;4805475;29;20026;-72
2020/12/15 03:01:18;;;;;;;2.08;1.48;;;;;;;18.75;57.24;100572.03;4790016;29;20031;-72
2020/12/15 03:03:44;;;;;;;2.33;1.70;;;;;;;18.69;57.00;100562.50;4806286;29;20114;-72
2020/12/15 03:06:10;;;;;;;2.10;1.70;;;;;;;18.75;57.05;100572.88;4790546;29;20122;-72
2020/12/15 03:08:35;;;;;;;2.97;1.67;;;;;;;18.72;56.92;100577.28;4805821;29;20130;-72
2020/12/15 03:11:01;;;;;;;2.67;1.95;;;;;;;18.74;56.98;100584.25;4806703;29;20039;-72
2020/12/15 03:13:27;;;;;;;2.17;1.50;;;;;;;18.72;56.84;100578.16;4805373;29;20122;-72
2020/12/15 03:15:53;;;;;;;2.22;1.60;;;;;;;18.73;56.93;100586.88;4806478;29;20437;-72
2020/12/15 03:18:19;;;;;;;3.13;2.20;;;;;;;18.71;57.24;100586.88;4808236;29;20061;-72
2020/12/15 03:20:47;;;;;;;1.95;1.50;;;;;;;18.69;56.89;100580.81;4791158;29;20027;-72
2020/12/15 03:23:17;;;;;;;3.08;1.88;;;;;;;18.73;57.18;100592.13;4774143;29;20502;-72
2020/12/15 03:25:43;;;;;;;2.35;1.33;;;;;;;18.71;57.08;100586.88;4806106;29;20043;-72
2020/12/15 03:28:08;;;;;;;2.25;1.77;;;;;;;18.72;56.96;100588.63;4774486;29;20092;-72
2020/12/15 03:30:35;;;;;;;2.38;1.80;;;;;;;18.72;56.77;100593.00;4812118;29;20035;-72
2020/12/15 03:33:01;;;;;;;2.83;1.77;;;;;;;18.71;57.00;100584.28;4805261;29;20039;-72
2020/12/15 03:35:27;;;;;;;2.42;1.50;;;;;;;18.71;57.06;100589.50;4790224;29;20453;-72
2020/12/15 03:37:55;;;;;;;2.53;2.00;;;;;;;18.69;57.06;100588.69;4806241;29;20374;-72
2020/12/15 03:40:20;;;;;;;1.75;1.38;;;;;;;18.71;57.00;100583.41;4778111;29;20031;-72
2020/12/15 03:42:46;;;;;;;1.83;1.60;;;;;;;18.66;57.01;100578.22;4807564;29;20035;-72
2020/12/15 03:45:11;;;;;;;2.80;1.63;;;;;;;18.65;57.04;100559.91;4797483;29;20383;-72
2020/12/15 03:47:36;;;;;;;1.77;1.33;;;;;;;18.67;56.96;100579.97;4808328;29;20026;-72
2020/12/15 03:50:03;;;;;;;1.92;1.55;;;;;;;18.69;57.04;100577.34;4819938;29;20479;-73
2020/12/15 03:52:28;;;;;;;4.13;2.17;;;;;;;18.69;57.33;100580.81;4798652;29;20031;-72
2020/12/15 03:54:54;;;;;;;2.72;1.83;;;;;;;18.66;57.25;100577.34;4808137;29;20054;-76
2020/12/15 03:57:19;;;;;;;2.80;1.52;;;;;;;18.64;57.20;100576.50;4823759;29;20439;-76
2020/12/15 03:59:44;;;;;;;2.63;2.00;;;;;;;18.67;57.18;100568.63;4823345;29;20046;-76
2020/12/15 04:02:10;;;;;;;2.45;2.03;;;;;;;18.64;57.27;100564.28;4793488;29;20031;-76
2020/12/15 04:04:35;;;;;;;2.90;2.50;;;;;;;18.65;57.16;100568.63;4789144;29;20046;-76
2020/12/15 04:07:00;;;;;;;2.13;1.60;;;;;;;18.67;57.01;100568.63;4821581;29;20030;-76
2020/12/15 04:09:26;;;;;;;2.50;1.65;;;;;;;18.67;57.08;100574.72;4826131;29;20087;-76
2020/12/15 04:11:51;;;;;;;1.90;1.70;;;;;;;18.66;57.15;100570.38;4811422;29;20534;-76
2020/12/15 04:14:16;;;;;;;2.10;1.45;;;;;;;18.61;57.23;100564.28;4811740;29;20038;-76
2020/12/15 04:16:42;;;;;;;2.67;2.05;;;;;;;18.65;57.13;100571.25;4826410;29;20057;-76
2020/12/15 04:19:07;;;;;;;1.70;1.48;;;;;;;18.63;57.19;100578.25;4818723;29;20460;-76
2020/12/15 04:21:32;;;;;;;2.85;1.73;;;;;;;18.63;57.24;100578.25;4809224;29;20038;-76
2020/12/15 04:23:57;;;;;;;2.05;1.60;;;;;;;18.64;57.20;100581.75;4808031;29;20447;-76
2020/12/15 04:26:23;;;;;;;2.00;1.45;;;;;;;18.64;57.12;100584.34;4820171;29;20058;-76
2020/12/15 04:28:48;;;;;;;3.35;1.75;;;;;;;18.62;57.00;100576.50;4808959;29;20059;-77
2020/12/15 04:31:13;;;;;;;2.03;1.60;;;;;;;18.60;57.15;100567.78;4813184;29;20091;-76
2020/12/15 04:33:39;;;;;;;2.25;1.40;;;;;;;18.63;57.08;100580.88;4805263;29;20050;-76
2020/12/15 04:36:04;;;;;;;2.60;1.73;;;;;;;18.61;57.09;100577.41;4824701;29;20070;-77
2020/12/15 04:38:29;;;;;;;1.92;1.42;;;;;;;18.63;56.98;100585.25;4824537;29;20045;-76
2020/12/15 04:40:55;;;;;;;1.98;1.48;;;;;;;18.61;57.09;100587.88;4808122;29;20049;-76
2020/12/15 04:43:21;;;;;;;2.45;1.90;;;;;;;18.61;57.19;100589.63;4802444;29;20034;-77
2020/12/15 04:45:47;;;;;;;2.22;1.75;;;;;;;18.61;57.14;100592.25;4822880;29;20074;-77
2020/12/15 04:48:17;;;;;;;2.22;1.70;;;;;;;18.63;56.78;100587.84;4819051;29;20031;-72
2020/12/15 04:50:48;;;;;;;2.10;1.48;;;;;;;18.60;57.33;100585.25;4818163;29;20065;-72
2020/12/15 04:53:17;;;;;;;2.10;1.60;;;;;;;18.62;57.18;100594.84;4823576;29;20030;-72
2020/12/15 04:55:49;;;;;;;2.58;2.00;;;;;;;18.56;57.01;100590.47;4822768;29;20145;-72
2020/12/15 04:58:19;;;;;;;2.35;1.75;;;;;;;18.60;57.16;100598.34;4823458;29;20034;-72
2020/12/15 05:00:45;;;;;;;2.72;1.70;;;;;;;18.59;56.96;100594.00;4822506;29;20026;-72
2020/12/15 05:03:14;;;;;;;2.30;1.60;;;;;;;18.54;56.86;100594.03;4822511;29;20030;-72
2020/12/15 05:05:39;;;;;;;1.90;1.42;;;;;;;18.58;57.10;100590.50;4821394;29;20080;-72
2020/12/15 05:08:05;;;;;;;2.83;1.80;;;;;;;18.60;57.07;100595.75;4806840;29;22016;-72
2020/12/15 05:10:30;;;;;;;2.65;1.90;;;;;;;18.58;57.23;100593.13;4813622;29;20022;-72
2020/12/15 05:12:56;;;;;;;2.53;1.95;;;;;;;18.60;57.13;100591.38;4806801;29;20039;-76
2020/12/15 05:15:22;;;;;;;3.20;2.22;;;;;;;18.57;57.13;100593.97;4807713;29;20058;-76
2020/12/15 05:17:48;;;;;;;2.35;1.73;;;;;;;18.58;57.16;100603.59;4807711;29;20086;-76
2020/12/15 05:20:28;;;;;;;3.92;1.80;;;;;;;18.58;57.02;100593.13;4804692;29;20558;-76
2020/12/15 05:22:53;;;;;;;2.20;1.58;;;;;;;18.56;57.04;100592.28;4823738;29;20095;-76
2020/12/15 05:25:29;;;;;;;2.58;2.20;;;;;;;18.59;57.13;100599.22;4810631;29;20039;-76
2020/12/15 05:27:56;;;;;;;2.38;1.92;;;;;;;18.56;57.18;100595.72;4827243;29;20046;-76
2020/12/15 05:30:22;;;;;;;2.50;1.60;;;;;;;18.56;57.04;100600.97;4800476;29;20027;-76
2020/12/15 05:32:50;;;;;;;3.08;1.48;;;;;;;18.58;57.09;100595.75;4826281;29;20054;-76
2020/12/15 05:35:23;;;;;;;1.65;1.40;;;;;;;18.48;57.07;100594.94;4827140;29;20037;-77
2020/12/15 05:37:48;;;;;;;2.63;2.10;;;;;;;18.56;57.10;100600.13;4810365;29;20478;-76
2020/12/15 05:40:14;;;;;;;2.75;2.33;;;;;;;18.55;57.02;100607.09;4826641;29;20076;-76
2020/12/15 05:42:39;;;;;;;2.83;1.60;;;;;;;18.59;57.18;100605.34;4810280;29;20439;-75
2020/12/15 05:45:05;;;;;;;1.55;1.35;;;;;;;18.55;57.17;100606.25;4826546;29;20050;-74
2020/12/15 05:47:36;;;;;;;3.30;1.63;;;;;;;18.57;57.06;100593.97;4825760;29;20038;-78
2020/12/15 05:50:01;;;;;;;2.75;1.45;;;;;;;18.63;57.15;100607.06;4826263;29;20027;-78
2020/12/15 05:52:30;;;;;;;2.03;1.50;;;;;;;18.70;57.13;100618.34;4810549;29;20091;-78
2020/12/15 05:55:06;;;;;;;2.33;1.88;;;;;;;18.87;56.35;100613.81;4826396;29;20030;-77
2020/12/15 05:57:32;;;;;;;2.08;1.50;;;;;;;18.86;56.15;100612.94;4794615;29;20046;-77
2020/12/15 06:00:11;;;;;;;2.65;2.00;;;;;;;18.87;56.50;100613.81;4810288;29;20034;-76
2020/12/15 06:02:36;;;;;;;2.75;1.75;;;;;;;19.02;55.99;100618.03;4810658;29;20517;-76
2020/12/15 06:05:04;;;;;;;2.83;1.90;;;;;;;19.07;55.62;100611.00;4804624;29;20075;-75
2020/12/15 06:07:32;;;;;;;3.40;1.70;;;;;;;19.09;55.91;100617.06;4823735;29;20037;-75
2020/12/15 06:09:57;;;;;;;12.40;1.95;;;;;;;19.11;56.02;100612.66;4823333;29;20030;-75
2020/12/15 06:12:23;;;;;;;4.38;2.03;;;;;;;19.10;55.86;100618.81;4822347;29;20050;-75
2020/12/15 06:14:49;;;;;;;8.75;3.90;;;;;;;19.09;55.97;100619.69;4824539;29;20054;-75
2020/12/15 06:17:17;;;;;;;4.18;2.80;;;;;;;19.13;55.85;100608.28;4808280;29;20035;-76
2020/12/15 06:19:43;;;;;;;5.15;2.78;;;;;;;19.23;55.88;100617.78;4820162;29;20558;-75
2020/12/15 06:22:09;;;;;;;4.35;2.65;;;;;;;19.16;56.05;100624.00;4807572;29;20129;-75
2020/12/15 06:24:40;;;;;;;3.53;2.20;;;;;;;19.15;56.02;100617.88;4793129;29;20035;-75
2020/12/15 06:27:13;;;;;;;9.52;2.40;;;;;;;19.25;55.93;100626.50;4794975;29;20041;-75
2020/12/15 06:29:40;;;;;;;3.00;2.10;;;;;;;19.23;56.14;100626.50;4824821;29;20039;-75
2020/12/15 06:32:16;;;;;;;5.95;2.65;;;;;;;19.22;56.16;100631.75;4811253;29;20125;-75
2020/12/15 06:34:46;;;;;;;5.25;2.95;;;;;;;19.30;56.07;100635.19;4813919;29;20083;-74
2020/12/15 06:37:14;;;;;;;3.67;2.25;;;;;;;19.30;56.15;100634.31;4810070;29;20041;-75
2020/12/15 06:39:52;;;;;;;3.85;2.20;;;;;;;19.27;56.07;100635.22;4825600;29;20075;-73
2020/12/15 06:42:17;;;;;;;5.45;2.42;;;;;;;19.32;56.17;100628.19;4825856;29;20030;-75
2020/12/15 06:44:43;;;;;;;4.53;2.47;;;;;;;19.35;56.11;100628.13;4809127;29;20054;-74
2020/12/15 06:47:08;;;;;;;8.63;3.13;;;;;;;19.30;56.43;100634.31;4824210;29;20447;-74
2020/12/15 06:49:36;;;;;;;4.60;2.60;;;;;;;19.29;56.50;100636.06;4808910;29;20401;-73
2020/12/15 06:52:05;;;;;;;4.78;2.35;;;;;;;19.36;56.38;100640.34;4805393;29;20034;-73
2020/12/15 06:54:32;;;;;;;4.93;2.97;;;;;;;19.33;56.50;100635.16;4822161;29;20031;-73
2020/12/15 06:57:05;;;;;;;5.25;2.70;;;;;;;19.38;56.32;100649.06;4823908;29;20474;-73
2020/12/15 06:59:39;;;;;;;5.57;2.70;;;;;;;19.37;56.16;100646.47;4808560;29;20030;-73
2020/12/15 07:02:05;;;;;;;5.35;2.42;;;;;;;19.34;56.23;100654.38;4826348;29;20041;-73
2020/12/15 07:04:32;;;;;;;4.28;2.05;;;;;;;19.35;56.08;100649.09;4808465;29;20386;-73
2020/12/15 07:06:59;;;;;;;3.38;2.38;;;;;;;19.35;56.18;100654.34;4808778;29;20122;-73
2020/12/15 07:09:25;;;;;;;4.82;2.50;;;;;;;19.26;56.19;100660.56;4832260;29;20042;-73
2020/12/15 07:11:51;;;;;;;3.40;2.55;;;;;;;19.26;56.31;100667.56;4789810;29;20039;-73
2020/12/15 07:14:21;;;;;;;3.25;2.47;;;;;;;19.23;56.26;100668.47;4799977;29;20045;-73
2020/12/15 07:16:46;;;;;;;4.53;2.13;;;;;;;19.22;56.47;100663.22;4824384;29;20409;-73
2020/12/15 07:19:12;;;;;;;3.70;2.53;;;;;;;19.33;56.14;100664.00;4818585;29;20038;-73
2020/12/15 07:21:37;;;;;;;4.72;2.25;;;;;;;19.31;56.08;100663.16;4824420;29;20125;-74
2020/12/15 07:24:02;;;;;;;3.47;2.30;;;;;;;19.30;56.22;100671.03;4801819;29;20038;-73
2020/12/15 07:26:28;;;;;;;3.53;2.67;;;;;;;19.36;55.75;100668.31;4824984;29;20441;-73
2020/12/15 07:28:54;;;;;;;3.22;1.90;;;;;;;19.36;56.30;100670.94;4815676;29;20121;-73
2020/12/15 07:31:29;;;;;;;3.42;2.10;;;;;;;19.31;56.10;100665.78;4805915;29;20371;-73
2020/12/15 07:34:24;;;;;;;3.72;2.08;;;;;;;19.42;55.81;100676.13;4824260;29;20110;-73
2020/12/15 07:36:52;;;;;;;4.85;2.20;;;;;;;19.40;56.03;100678.75;4797674;29;20507;-73
2020/12/15 07:39:18;;;;;;;4.53;2.05;;;;;;;19.38;56.05;100679.66;4824599;29;20034;-73
2020/12/15 07:42:00;;;;;;;5.18;2.85;;;;;;;19.40;55.94;100681.38;4816585;29;20058;-74
2020/12/15 07:44:26;;;;;;;4.18;2.33;;;;;;;19.39;55.90;100682.28;4796066;29;20489;-73
2020/12/15 07:46:51;;;;;;;2.80;2.15;;;;;;;19.39;56.18;100702.38;4820188;29;20095;-74
2020/12/15 07:49:16;;;;;;;4.20;1.90;;;;;;;19.41;56.00;100698.88;4807659;29;20058;-73
2020/12/15 07:51:43;;;;;;;3.65;2.08;;;;;;;19.42;55.80;100694.50;4824184;29;20419;-73
2020/12/15 07:54:09;;;;;;;4.10;2.22;;;;;;;19.40;55.68;100699.75;4805367;29;20035;-73
2020/12/15 07:56:34;;;;;;;2.65;1.83;;;;;;;19.43;56.06;100701.47;4815946;29;20086;-73
2020/12/15 07:59:00;;;;;;;3.83;2.25;;;;;;;19.45;55.74;100705.81;4796597;29;20444;-73
2020/12/15 08:01:28;;;;;;;4.30;1.92;;;;;;;19.41;55.68;100704.09;4775031;29;20039;-73
2020/12/15 08:04:03;;;;;;;2.42;1.90;;;;;;;19.44;55.99;100717.19;4805743;29;20497;-73
2020/12/15 08:06:31;;;;;;;3.97;1.90;;;;;;;19.45;55.78;100708.44;4817704;29;20043;-73
2020/12/15 08:08:58;;;;;;;2.05;1.52;;;;;;;19.46;55.73;100712.81;4821496;29;20030;-73
2020/12/15 08:11:23;;;;;;;4.00;2.08;;;;;;;19.43;55.66;100720.69;4821561;29;20098;-73
2020/12/15 08:13:49;;;;;;;2.55;2.17;;;;;;;19.45;55.66;100705.81;4793154;29;20034;-73
2020/12/15 08:16:16;;;;;;;2.20;1.77;;;;;;;19.48;55.73;100729.38;4807354;29;20033;-73
2020/12/15 08:18:45;;;;;;;3.40;1.88;;;;;;;19.41;55.36;100722.47;4786441;29;20577;-74
2020/12/15 08:21:13;;;;;;;2.47;1.50;;;;;;;19.48;55.63;100731.13;4806402;29;20133;-73
2020/12/15 08:23:46;;;;;;;2.22;1.60;;;;;;;19.49;55.74;100746.00;4801308;29;20034;-73
2020/12/15 08:26:12;;;;;;;4.18;2.38;;;;;;;19.44;55.74;100739.94;4823519;29;20042;-74
2020/12/15 08:28:37;;;;;;;1.70;1.20;;;;;;;19.38;55.95;100753.97;4802747;29;20447;-73
2020/12/15 08:31:09;;;;;;;2.20;1.52;;;;;;;19.31;56.00;100751.41;4824203;29;20049;-73
2020/12/15 08:33:35;;;;;;;3.58;2.45;;;;;;;19.24;56.36;100745.34;4823106;29;20062;-73
2020/12/15 08:36:01;;;;;;;2.25;1.55;;;;;;;19.21;56.38;100740.16;4793759;29;20102;-73
2020/12/15 08:38:27;;;;;;;2.72;1.90;;;;;;;19.21;56.43;100761.13;4819849;29;20121;-73
2020/12/15 08:41:00;;;;;;;3.67;1.98;;;;;;;19.19;56.29;100763.75;4822937;29;20427;-72
2020/12/15 08:43:26;;;;;;;2.55;1.70;;;;;;;19.19;56.64;100760.28;4821238;29;20039;-73
2020/12/15 08:45:52;;;;;;;3.03;2.00;;;;;;;19.13;56.71;100765.56;4820966;29;20046;-73
2020/12/15 08:48:21;;;;;;;2.95;1.60;;;;;;;19.16;56.44;100776.91;4809665;29;20132;-73
2020/12/15 08:50:46;;;;;;;3.13;1.60;;;;;;;19.27;56.27;100776.78;4811106;29;20042;-73
2020/12/15 08:53:12;;;;;;;2.30;1.83;;;;;;;19.29;56.09;100761.91;4791997;29;20043;-73
2020/12/15 08:55:39;;;;;;;3.45;1.40;;;;;;;19.28;56.13;100768.03;4801804;29;20056;-73
2020/12/15 08:58:06;;;;;;;4.47;1.63;;;;;;;19.39;55.91;100781.06;4819190;29;20034;-73
2020/12/15 09:00:36;;;;;;;3.60;1.48;;;;;;;19.42;55.89;100781.03;4810697;29;20046;-74
2020/12/15 09:03:10;;;;;;;2.50;1.35;;;;;;;19.39;55.89;100781.06;4825689;29;20083;-73
2020/12/15 09:05:53;;;;;;;2.20;1.20;;;;;;;19.46;55.93;100791.47;4819751;29;20046;-74
2020/12/15 09:08:25;;;;;;;3.70;1.45;;;;;;;19.48;55.78;100796.69;4810920;29;20031;-73
2020/12/15 09:10:52;;;;;;;3.20;1.67;;;;;;;19.44;55.77;100795.88;4827434;29;20066;-73
2020/12/15 09:13:19;;;;;;;3.08;1.40;;;;;;;19.48;55.70;100801.94;4826356;29;20038;-73
2020/12/15 09:15:57;;;;;;;2.75;1.27;;;;;;;19.53;55.68;100814.16;4810829;29;20042;-73
2020/12/15 09:18:33;;;;;;;1.60;1.17;;;;;;;19.48;55.69;100813.28;4807204;29;20046;-73
2020/12/15 09:21:12;;;;;;;2.08;1.30;;;;;;;19.54;55.71;100815.03;4810674;29;20034;-73
2020/12/15 09:23:38;;;;;;;2.17;1.45;;;;;;;19.52;55.63;100815.03;4828871;29;20497;-73
2020/12/15 09:26:04;;;;;;;2.72;1.30;;;;;;;19.49;55.64;100814.19;4796490;29;20047;-74
2020/12/15 09:28:29;;;;;;;1.90;1.15;;;;;;;19.49;55.57;100809.81;4807639;29;20169;-73
2020/12/15 09:30:55;;;;;;;1.63;1.35;;;;;;;19.56;55.44;100821.13;4822563;29;20030;-73
2020/12/15 09:33:21;;;;;;;2.13;1.25;;;;;;;19.51;55.54;100808.06;4819336;29;20062;-73
2020/12/15 09:35:50;;;;;;;3.05;1.45;;;;;;;19.54;55.66;100820.28;4796982;29;20038;-73
2020/12/15 09:38:15;;;;;;;2.10;1.02;;;;;;;19.56;55.50;100819.38;4823495;29;20038;-73
2020/12/15 09:40:41;;;;;;;1.67;1.20;;;;;;;19.53;55.55;100814.16;4811816;29;20090;-73
2020/12/15 09:43:07;;;;;;;2.22;1.52;;;;;;;19.54;55.50;100826.41;4809265;29;20049;-74
2020/12/15 09:45:32;;;;;;;1.88;1.10;;;;;;;19.62;55.35;100829.81;4808975;29;20050;-73
2020/12/15 09:47:59;;;;;;;1.80;1.05;;;;;;;19.60;55.49;100836.81;4810956;29;20517;-74
2020/12/15 09:50:25;;;;;;;1.83;1.10;;;;;;;19.54;55.49;100833.41;4816470;29;20380;-73
2020/12/15 09:52:51;;;;;;;4.20;2.35;;;;;;;19.63;55.41;100839.41;4825276;29;20086;-73
2020/12/15 09:55:16;;;;;;;1.98;0.95;;;;;;;19.62;55.32;100832.44;4815387;29;20038;-73
2020/12/15 09:57:42;;;;;;;2.42;1.27;;;;;;;19.60;55.48;100843.84;4809880;29;20109;-73
2020/12/15 10:00:07;;;;;;;1.45;1.00;;;;;;;19.66;55.56;100845.53;4813184;29;20038;-73
2020/12/15 10:02:32;;;;;;;1.65;1.10;;;;;;;19.66;55.33;100838.53;4825344;29;20042;-73
2020/12/15 10:04:58;;;;;;;1.80;1.00;;;;;;;19.57;55.36;100825.50;4809192;29;20059;-73
2020/12/15 10:07:23;;;;;;;2.60;1.52;;;;;;;19.67;55.19;100842.00;4809987;29;20034;-73
2020/12/15 10:09:51;;;;;;;1.90;1.05;;;;;;;19.65;55.28;100835.91;4808105;29;20049;-73
2020/12/15 10:12:17;;;;;;;2.35;1.40;;;;;;;19.58;55.31;100849.09;4778750;29;20089;-73
2020/12/15 10:14:42;;;;;;;2.42;1.35;;;;;;;19.65;55.32;100859.53;4817980;29;20482;-73
2020/12/15 10:17:07;;;;;;;1.13;0.98;;;;;;;19.71;55.32;100868.22;4803728;29;20042;-74
2020/12/15 10:19:33;;;;;;;2.65;1.15;;;;;;;19.68;55.50;100864.75;4823557;29;20038;-74
2020/12/15 10:21:58;;;;;;;1.55;1.00;;;;;;;19.61;55.43;100856.91;4801258;29;20061;-74
2020/12/15 10:24:23;;;;;;;1.67;1.20;;;;;;;19.73;55.19;100873.47;4807060;29;20038;-73
2020/12/15 10:26:52;;;;;;;1.30;0.93;;;;;;;19.69;55.11;100861.25;4792468;29;20129;-73
2020/12/15 10:29:17;;;;;;;2.35;1.00;;;;;;;19.68;55.45;100860.38;4821627;29;20117;-74
2020/12/15 10:31:46;;;;;;;1.70;1.10;;;;;;;19.72;55.17;100853.34;4822155;29;20105;-73
2020/12/15 10:34:11;;;;;;;2.10;1.10;;;;;;;19.74;55.31;100854.19;4815750;29;20498;-74
2020/12/15 10:36:37;;;;;;;2.25;1.10;;;;;;;19.67;55.49;100857.75;4808732;29;20036;-73
2020/12/15 10:39:02;;;;;;;2.35;0.90;;;;;;;19.76;55.17;100861.16;4793607;29;20047;-73
2020/12/15 10:41:27;;;;;;;2.13;1.10;;;;;;;19.77;55.15;100857.66;4805220;29;20036;-74
2020/12/15 10:43:53;;;;;;;2.95;1.63;;;;;;;19.75;55.06;100850.66;4797410;29;20041;-73
2020/12/15 10:46:25;;;;;;;4.40;1.80;;;;;;;19.77;55.19;100855.03;4825221;29;20416;-73
2020/12/15 10:48:50;;;;;;;3.20;2.20;;;;;;;19.85;56.06;100855.84;4808192;29;20038;-74
2020/12/15 10:51:16;;;;;;;4.60;2.45;;;;;;;19.93;55.37;100863.63;4805530;29;20026;-74
2020/12/15 10:53:41;;;;;;;8.60;3.25;;;;;;;19.91;56.11;100866.25;4806754;29;20542;-72
2020/12/15 10:56:07;;;;;;;2.97;2.05;;;;;;;19.89;55.92;100869.78;4808089;29;20045;-72
2020/12/15 10:58:32;;;;;;;4.82;2.47;;;;;;;19.89;55.67;100873.25;4811889;29;20034;-73
2020/12/15 11:00:58;;;;;;;3.20;2.22;;;;;;;19.94;55.82;100867.97;4791312;29;20487;-72
2020/12/15 11:03:23;;;;;;;2.65;2.15;;;;;;;19.92;56.12;100864.50;4792410;29;20068;-74
2020/12/15 11:05:48;;;;;;;3.78;2.15;;;;;;;19.91;56.20;100873.25;4795093;29;20034;-74
2020/12/15 11:08:14;;;;;;;2.85;2.00;;;;;;;19.85;55.90;100871.59;4794717;29;20042;-74
2020/12/15 11:10:40;;;;;;;2.70;2.00;;;;;;;19.82;56.05;100874.22;4803919;29;20059;-73
2020/12/15 11:13:05;;;;;;;3.13;2.25;;;;;;;19.63;56.24;100855.16;4819313;29;20068;-74
2020/12/15 11:15:31;;;;;;;2.78;1.92;;;;;;;19.67;56.31;100870.88;4825057;29;20075;-74
2020/12/15 11:17:56;;;;;;;3.60;2.28;;;;;;;19.57;56.57;100854.34;4791931;29;20066;-73
2020/12/15 11:20:21;;;;;;;3.25;2.28;;;;;;;19.60;56.62;100867.44;4820830;29;20038;-74
2020/12/15 11:22:47;;;;;;;2.67;2.05;;;;;;;19.55;56.75;100867.47;4805292;29;20515;-73